createdAt,value
2022-09-03T00:00:05.510Z,1.38
2022-09-03T00:02:54.061Z,1.38
2022-09-03T00:05:41.580Z,1.10
2022-09-03T00:08:11.604Z,1.17
2022-09-03T00:10:38.621Z,1.27
2022-09-03T00:13:07.932Z,1.35
2022-09-03T00:15:35.965Z,1.13
2022-09-03T00:18:24.840Z,1.10
2022-09-03T00:21:13.084Z,1.20
2022-09-03T00:23:41.632Z,1.23
2022-09-03T00:26:12.232Z,1.42
2022-09-03T00:28:45.460Z,1.00
2022-09-03T00:31:27.536Z,1.08
2022-09-03T00:34:05.355Z,1.30
2022-09-03T00:36:42.528Z,1.38
2022-09-03T00:39:15.042Z,1.02
2022-09-03T00:41:53.627Z,1.17
2022-09-03T00:44:45.312Z,1.05
2022-09-03T00:47:24.996Z,1.00
2022-09-03T00:50:18.342Z,0.80
2022-09-03T00:53:00.415Z,1.08
2022-09-03T00:55:35.956Z,1.00
2022-09-03T01:00:40.041Z,1.20
2022-09-03T01:03:14.065Z,1.13
2022-09-03T01:05:46.909Z,1.35
2022-09-03T01:08:32.081Z,1.27
2022-09-03T01:11:17.962Z,1.15
2022-09-03T01:14:02.470Z,1.30
2022-09-03T01:16:42.227Z,1.20
2022-09-03T01:19:28.891Z,0.95
2022-09-03T01:22:11.056Z,1.10
2022-09-03T01:24:59.195Z,1.10
2022-09-03T01:27:30.498Z,1.30
2022-09-03T01:30:18.262Z,1.30
2022-09-03T01:33:02.918Z,1.30
2022-09-03T01:35:37.656Z,1.10
2022-09-03T01:38:32.030Z,1.20
2022-09-03T01:41:25.489Z,0.98
2022-09-03T01:44:26.239Z,1.02
2022-09-03T01:47:06.647Z,1.20
2022-09-03T01:50:01.292Z,1.25
2022-09-03T01:53:03.260Z,1.33
2022-09-03T01:55:44.427Z,1.27
2022-09-03T01:58:20.989Z,1.00
2022-09-03T02:00:52.091Z,1.20
2022-09-03T02:03:19.405Z,1.38
2022-09-03T02:05:47.788Z,1.08
2022-09-03T02:08:15.081Z,1.05
2022-09-03T02:10:47.996Z,1.00
2022-09-03T02:13:27.430Z,1.13
2022-09-03T02:15:56.815Z,1.30
2022-09-03T02:18:27.061Z,1.20
2022-09-03T02:20:54.822Z,1.30
2022-09-03T02:23:25.482Z,1.08
2022-09-03T02:25:58.452Z,0.90
2022-09-03T02:28:26.528Z,1.25
2022-09-03T02:30:54.420Z,1.70
2022-09-03T02:33:21.571Z,1.38
2022-09-03T02:35:48.915Z,1.27
2022-09-03T02:38:21.529Z,1.25
2022-09-03T02:40:48.801Z,1.65
2022-09-03T02:43:25.961Z,1.33
2022-09-03T02:45:56.748Z,1.20
2022-09-03T02:48:24.785Z,1.40
2022-09-03T02:50:52.059Z,1.23
2022-09-03T02:53:19.678Z,1.48
2022-09-03T02:55:46.794Z,1.50
2022-09-03T02:58:14.192Z,1.25
2022-09-03T03:00:41.304Z,1.08
2022-09-03T03:03:08.437Z,1.00
2022-09-03T03:05:49.839Z,1.58
2022-09-03T03:08:21.223Z,1.40
2022-09-03T03:10:49.269Z,1.20
2022-09-03T03:13:16.646Z,1.05
2022-09-03T03:15:44.356Z,1.80
2022-09-03T03:18:14.574Z,1.13
2022-09-03T03:20:42.114Z,1.67
2022-09-03T03:23:10.032Z,1.52
2022-09-03T03:25:38.756Z,1.10
2022-09-03T03:28:06.535Z,1.17
2022-09-03T03:30:34.464Z,1.55
2022-09-03T03:33:01.639Z,1.33
2022-09-03T03:35:28.724Z,1.60
2022-09-03T03:37:58.135Z,1.50
2022-09-03T03:40:25.739Z,1.42
2022-09-03T03:42:53.595Z,1.15
2022-09-03T03:45:20.791Z,1.15
2022-09-03T03:47:47.977Z,1.33
2022-09-03T03:50:15.343Z,1.27
2022-09-03T03:52:42.780Z,1.08
2022-09-03T03:55:09.945Z,1.40
2022-09-03T03:57:37.068Z,1.88
2022-09-03T04:00:04.729Z,1.80
2022-09-03T04:02:34.178Z,1.30
2022-09-03T04:05:04.861Z,1.50
2022-09-03T04:07:31.960Z,1.27
2022-09-03T04:10:01.208Z,1.40
2022-09-03T04:12:28.311Z,1.80
2022-09-03T04:14:55.475Z,1.30
2022-09-03T04:17:25.268Z,1.25
2022-09-03T04:19:52.657Z,1.42
2022-09-03T04:22:20.680Z,1.45
2022-09-03T04:24:47.839Z,1.63
2022-09-03T04:27:14.943Z,1.92
2022-09-03T04:29:42.085Z,1.52
2022-09-03T04:32:28.145Z,1.55
2022-09-03T04:37:22.345Z,1.83
2022-09-03T04:39:49.596Z,1.90
2022-09-03T04:42:16.714Z,1.70
2022-09-03T04:44:43.830Z,1.80
2022-09-03T04:47:11.191Z,1.58
2022-09-03T04:49:40.140Z,1.55
2022-09-03T04:52:07.264Z,1.70
2022-09-03T04:54:34.400Z,1.67
2022-09-03T04:57:01.552Z,1.52
2022-09-03T04:59:28.637Z,1.48
2022-09-03T05:01:56.784Z,1.48
2022-09-03T05:04:23.998Z,1.50
2022-09-03T05:06:51.116Z,1.48
2022-09-03T05:09:18.229Z,1.95
2022-09-03T05:11:45.370Z,1.48
2022-09-03T05:14:12.698Z,2.10
2022-09-03T05:16:39.988Z,1.23
2022-09-03T05:19:08.064Z,2.17
2022-09-03T05:21:38.644Z,2.15
2022-09-03T05:24:05.787Z,1.67
2022-09-03T05:26:37.103Z,1.80
2022-09-03T05:29:08.250Z,1.42
2022-09-03T05:31:38.975Z,1.85
2022-09-03T05:34:06.923Z,1.75
2022-09-03T05:36:36.989Z,1.63
2022-09-03T05:39:05.573Z,1.40
2022-09-03T05:41:33.951Z,1.88
2022-09-03T05:44:01.285Z,1.80
2022-09-03T05:46:33.985Z,1.33
2022-09-03T05:49:02.541Z,1.45
2022-09-03T05:51:30.477Z,2.03
2022-09-03T05:53:57.945Z,1.80
2022-09-03T05:56:26.044Z,1.83
2022-09-03T05:58:55.967Z,1.58
2022-09-03T06:01:31.178Z,1.80
2022-09-03T06:04:02.522Z,1.42
2022-09-03T06:06:32.935Z,1.80
2022-09-03T06:09:21.184Z,2.15
2022-09-03T06:11:50.816Z,1.70
2022-09-03T06:14:20.190Z,1.75
2022-09-03T06:16:52.840Z,1.75
2022-09-03T06:19:20.269Z,1.80
2022-09-03T06:21:47.995Z,1.42
2022-09-03T06:24:20.301Z,1.90
2022-09-03T06:26:48.290Z,1.67
2022-09-03T06:29:16.001Z,1.40
2022-09-03T06:31:43.184Z,1.88
2022-09-03T06:34:10.392Z,1.48
2022-09-03T06:36:41.286Z,1.70
2022-09-03T06:39:08.432Z,1.77
2022-09-03T06:41:35.716Z,1.55
2022-09-03T06:44:11.381Z,1.50
2022-09-03T06:46:40.107Z,1.42
2022-09-03T06:49:08.398Z,1.40
2022-09-03T06:51:36.323Z,1.92
2022-09-03T06:54:08.494Z,1.75
2022-09-03T06:56:40.163Z,1.85
2022-09-03T06:59:13.046Z,1.85
2022-09-03T07:01:43.943Z,1.40
2022-09-03T07:04:13.311Z,1.58
2022-09-03T07:06:42.423Z,2.08
2022-09-03T07:09:10.968Z,1.58
2022-09-03T07:11:45.671Z,1.92
2022-09-03T07:14:13.541Z,2.03
2022-09-03T07:16:42.036Z,1.50
2022-09-03T07:19:09.749Z,1.70
2022-09-03T07:21:37.457Z,1.25
2022-09-03T07:24:05.871Z,2.00
2022-09-03T07:26:35.331Z,1.63
2022-09-03T07:29:02.842Z,1.38
2022-09-03T07:31:33.474Z,1.48
2022-09-03T07:34:11.540Z,1.48
2022-09-03T07:36:43.910Z,1.40
2022-09-03T07:39:12.063Z,1.90
2022-09-03T07:41:39.642Z,1.45
2022-09-03T07:44:08.483Z,2.30
2022-09-03T07:46:37.887Z,1.25
2022-09-03T07:49:06.233Z,1.60
2022-09-03T07:51:36.123Z,1.55
2022-09-03T07:54:06.949Z,1.50
2022-09-03T07:56:35.844Z,1.83
2022-09-03T07:59:03.729Z,2.03
2022-09-03T08:01:32.824Z,1.58
2022-09-03T08:04:01.026Z,1.80
2022-09-03T08:06:29.420Z,1.58
2022-09-03T08:09:04.135Z,1.33
2022-09-03T08:11:34.929Z,1.60
2022-09-03T08:14:07.497Z,1.33
2022-09-03T08:16:42.989Z,1.40
2022-09-03T08:19:11.245Z,2.08
2022-09-03T08:21:41.768Z,2.05
2022-09-03T08:24:09.115Z,1.58
2022-09-03T08:26:38.739Z,1.63
2022-09-03T08:29:06.134Z,1.60
2022-09-03T08:31:34.078Z,1.58
2022-09-03T08:34:06.340Z,1.65
2022-09-03T08:36:35.875Z,2.00
2022-09-03T08:39:08.035Z,1.50
2022-09-03T08:41:53.079Z,2.05
2022-09-03T08:44:35.081Z,1.45
2022-09-03T08:47:11.175Z,1.25
2022-09-03T08:49:52.356Z,1.20
2022-09-03T08:52:24.518Z,1.80
2022-09-03T08:54:52.881Z,1.90
2022-09-03T08:57:20.758Z,2.03
2022-09-03T08:59:53.512Z,1.80
2022-09-03T09:02:31.160Z,1.27
2022-09-03T09:05:16.275Z,1.63
2022-09-03T09:07:53.904Z,1.52
2022-09-03T09:10:26.353Z,1.55
2022-09-03T09:13:26.115Z,1.23
2022-09-03T09:16:16.088Z,1.60
2022-09-03T09:19:05.142Z,1.17
2022-09-03T09:21:41.342Z,1.65
2022-09-03T09:24:19.367Z,1.40
2022-09-03T09:26:46.925Z,1.10
2022-09-03T09:29:14.570Z,1.30
2022-09-03T09:31:44.650Z,1.33
2022-09-03T09:34:11.923Z,1.27
2022-09-03T09:36:53.410Z,1.23
2022-09-03T09:39:21.766Z,1.20
2022-09-03T09:41:59.952Z,1.35
2022-09-03T09:44:28.065Z,1.45
2022-09-03T09:47:04.781Z,1.63
2022-09-03T09:49:35.581Z,1.27
2022-09-03T09:52:06.342Z,1.20
2022-09-03T09:54:33.451Z,1.10
2022-09-03T09:57:03.597Z,1.02
2022-09-03T09:59:31.269Z,1.08
2022-09-03T10:02:11.607Z,1.23
2022-09-03T10:04:43.957Z,1.55
2022-09-03T10:07:27.394Z,1.10
2022-09-03T10:10:04.021Z,1.55
2022-09-03T10:12:59.131Z,1.45
2022-09-03T10:15:52.233Z,1.13
2022-09-03T10:18:56.132Z,1.33
2022-09-03T10:21:28.525Z,1.20
2022-09-03T10:24:16.999Z,1.20
2022-09-03T10:26:45.903Z,1.38
2022-09-03T10:29:18.847Z,1.23
2022-09-03T10:32:19.951Z,1.20
2022-09-03T10:35:12.654Z,1.10
2022-09-03T10:38:08.165Z,1.15
2022-09-03T10:40:39.899Z,0.98
2022-09-03T10:43:30.032Z,1.98
2022-09-03T10:46:06.212Z,1.20
2022-09-03T10:48:53.175Z,1.08
2022-09-03T10:51:26.956Z,1.35
2022-09-03T10:54:28.995Z,1.10
2022-09-03T10:57:07.950Z,1.35
2022-09-03T10:59:52.009Z,1.23
2022-09-03T11:02:34.145Z,1.27
2022-09-03T11:05:17.699Z,1.10
2022-09-03T11:07:49.345Z,1.20
2022-09-03T11:10:31.215Z,1.30
2022-09-03T11:12:58.435Z,1.17
2022-09-03T11:15:30.450Z,1.15
2022-09-03T11:18:20.737Z,1.10
2022-09-03T11:20:49.615Z,1.40
2022-09-03T11:23:17.232Z,0.95
2022-09-03T11:25:53.751Z,1.20
2022-09-03T11:28:38.937Z,1.60
2022-09-03T11:31:17.760Z,1.40
2022-09-03T11:33:49.315Z,1.40
2022-09-03T11:36:26.729Z,1.10
2022-09-03T11:38:53.979Z,1.10
2022-09-03T11:41:27.252Z,1.30
2022-09-03T11:43:54.906Z,1.20
2022-09-03T11:46:22.121Z,1.10
2022-09-03T11:48:50.123Z,1.20
2022-09-03T11:51:35.431Z,1.30
2022-09-03T11:54:07.480Z,1.13
2022-09-03T11:56:36.795Z,1.20
2022-09-03T11:59:07.379Z,1.23
2022-09-03T12:01:35.413Z,1.20
2022-09-03T12:04:07.539Z,1.08
2022-09-03T12:06:58.263Z,1.13
2022-09-03T12:09:51.563Z,1.20
2022-09-03T12:12:46.021Z,1.10
2022-09-03T12:15:28.604Z,1.08
2022-09-03T12:18:17.886Z,1.10
2022-09-03T12:20:46.781Z,1.40
2022-09-03T12:23:31.117Z,1.08
2022-09-03T12:26:02.204Z,1.10
2022-09-03T12:28:29.929Z,1.35
2022-09-03T12:31:08.267Z,1.50
2022-09-03T12:33:41.772Z,1.30
2022-09-03T12:36:09.763Z,1.02
2022-09-03T12:39:00.679Z,0.98
2022-09-03T12:41:29.412Z,1.20
2022-09-03T12:43:59.722Z,1.35
2022-09-03T12:46:32.354Z,0.93
2022-09-03T12:51:56.905Z,1.08
2022-09-03T12:54:26.234Z,1.52
2022-09-03T12:56:58.561Z,1.17
2022-09-03T12:59:28.222Z,1.00
2022-09-03T13:01:58.768Z,1.23
2022-09-03T13:04:29.260Z,1.20
2022-09-03T13:07:15.270Z,1.17
2022-09-03T13:09:42.419Z,1.20
2022-09-03T13:12:33.521Z,1.27
2022-09-03T13:15:10.678Z,1.02
2022-09-03T13:17:50.521Z,0.98
2022-09-03T13:20:29.238Z,1.20
2022-09-03T13:23:02.639Z,1.38
2022-09-03T13:25:32.722Z,1.58
2022-09-03T13:28:31.823Z,1.25
2022-09-03T13:31:10.785Z,1.20
2022-09-03T13:33:44.515Z,1.60
2022-09-03T13:36:18.046Z,1.30
2022-09-03T13:38:57.483Z,1.10
2022-09-03T13:41:28.016Z,1.35
2022-09-03T13:44:08.423Z,1.17
2022-09-03T13:46:54.963Z,1.23
2022-09-03T13:49:51.965Z,1.08
2022-09-03T13:52:28.649Z,1.38
2022-09-03T13:55:23.510Z,1.00
2022-09-03T13:58:01.667Z,0.90
2022-09-03T14:00:50.753Z,1.25
2022-09-03T14:03:37.240Z,1.10
2022-09-03T14:06:09.497Z,1.13
2022-09-03T14:09:01.448Z,1.20
2022-09-03T14:12:06.437Z,1.40
2022-09-03T14:17:20.667Z,1.10
2022-09-03T14:20:05.583Z,1.00
2022-09-03T14:25:15.662Z,1.27
2022-09-03T14:27:42.793Z,1.13
2022-09-03T14:30:30.180Z,1.23
2022-09-03T14:33:13.432Z,1.00
2022-09-03T14:35:52.805Z,1.30
2022-09-03T14:38:25.742Z,1.45
2022-09-03T14:41:20.355Z,1.20
2022-09-03T14:44:07.028Z,1.58
2022-09-03T14:46:55.969Z,1.23
2022-09-03T14:49:37.954Z,1.27
2022-09-03T14:52:35.668Z,1.35
2022-09-03T14:55:19.650Z,2.10
2022-09-03T14:58:06.104Z,1.50
2022-09-03T15:00:48.434Z,1.40
2022-09-03T15:03:27.377Z,1.00
2022-09-03T15:06:12.879Z,1.45
2022-09-03T15:08:45.548Z,1.20
2022-09-03T15:11:29.380Z,1.10
2022-09-03T15:14:12.443Z,1.27
2022-09-03T15:16:59.813Z,1.65
2022-09-03T15:19:32.861Z,1.30
2022-09-03T15:22:08.430Z,1.45
2022-09-03T15:24:59.078Z,1.55
2022-09-03T15:27:57.554Z,1.10
2022-09-03T15:30:34.073Z,1.48
2022-09-03T15:33:22.196Z,1.35
2022-09-03T15:36:01.618Z,1.25
2022-09-03T15:38:57.899Z,1.20
2022-09-03T15:41:32.544Z,1.50
2022-09-03T15:44:01.310Z,3.83
2022-09-03T15:46:52.844Z,4.93
2022-09-03T15:49:45.345Z,3.15
2022-09-03T15:52:31.777Z,2.35
2022-09-03T15:55:26.127Z,3.50
2022-09-03T15:58:04.988Z,1.33
2022-09-03T16:00:35.920Z,1.42
2022-09-03T16:03:12.220Z,1.85
2022-09-03T16:05:49.367Z,1.70
2022-09-03T16:08:22.417Z,1.92
2022-09-03T16:10:58.446Z,1.90
2022-09-03T16:13:55.935Z,1.40
2022-09-03T16:16:31.505Z,1.38
2022-09-03T16:19:03.435Z,1.60
2022-09-03T16:22:01.033Z,1.80
2022-09-03T16:24:53.369Z,1.58
2022-09-03T16:27:30.674Z,1.52
2022-09-03T16:30:01.139Z,1.80
2022-09-03T16:32:49.870Z,2.00
2022-09-03T16:35:28.072Z,1.55
2022-09-03T16:38:19.486Z,1.80
2022-09-03T16:40:56.863Z,1.60
2022-09-03T16:43:58.063Z,1.58
2022-09-03T16:46:31.062Z,1.58
2022-09-03T16:49:23.266Z,1.55
2022-09-03T16:52:38.674Z,1.92
2022-09-03T16:55:21.387Z,1.95
2022-09-03T16:58:00.943Z,1.85
2022-09-03T17:00:38.911Z,1.90
2022-09-03T17:03:28.499Z,1.90
2022-09-03T17:06:17.129Z,1.98
2022-09-03T17:09:06.857Z,2.03
2022-09-03T17:12:00.135Z,2.50
2022-09-03T17:14:45.889Z,2.20
2022-09-03T17:17:25.904Z,1.83
2022-09-03T17:20:36.040Z,2.45
2022-09-03T17:23:28.810Z,2.30
2022-09-03T17:26:07.577Z,1.98
2022-09-03T17:29:02.859Z,2.13
2022-09-03T17:31:47.781Z,2.03
2022-09-03T17:34:26.377Z,2.42
2022-09-03T17:37:18.866Z,2.03
2022-09-03T17:40:10.526Z,2.30
2022-09-03T17:42:57.140Z,2.05
2022-09-03T17:45:48.017Z,1.90
2022-09-03T17:48:39.292Z,2.15
2022-09-03T17:51:46.215Z,1.90
2022-09-03T17:54:34.288Z,2.03
2022-09-03T17:57:19.132Z,2.38
2022-09-03T18:00:26.181Z,2.00
2022-09-03T18:03:01.363Z,2.35
2022-09-03T18:08:22.393Z,1.90
2022-09-03T18:11:09.912Z,2.00
2022-09-03T18:13:50.153Z,1.90
2022-09-03T18:16:33.078Z,2.38
2022-09-03T18:19:32.293Z,1.95
2022-09-03T18:22:21.222Z,2.40
2022-09-03T18:25:18.808Z,2.33
2022-09-03T18:28:06.830Z,2.28
2022-09-03T18:30:53.078Z,2.60
2022-09-03T18:33:42.815Z,2.50
2022-09-03T18:36:32.446Z,2.53
2022-09-03T18:39:52.100Z,2.55
2022-09-03T18:42:47.519Z,2.42
2022-09-03T18:49:26.717Z,2.28
2022-09-03T18:52:40.128Z,1.95
2022-09-03T18:55:56.919Z,2.47
2022-09-03T18:58:57.951Z,2.33
2022-09-03T19:01:53.666Z,2.42
2022-09-03T19:04:39.614Z,2.30
2022-09-03T19:07:34.345Z,2.25
2022-09-03T19:10:30.876Z,2.53
2022-09-03T19:13:33.963Z,2.15
2022-09-03T19:16:44.077Z,2.28
2022-09-03T19:19:45.146Z,2.72
2022-09-03T19:22:31.919Z,2.08
2022-09-03T19:25:36.117Z,2.53
2022-09-03T19:28:34.359Z,2.05
2022-09-03T19:32:00.231Z,2.42
2022-09-03T19:34:49.006Z,2.30
2022-09-03T19:37:38.766Z,2.45
2022-09-03T19:40:30.868Z,2.78
2022-09-03T19:43:33.615Z,2.45
2022-09-03T19:46:52.556Z,2.15
2022-09-03T19:49:45.047Z,2.25
2022-09-03T19:52:50.887Z,2.28
2022-09-03T19:55:40.693Z,2.72
2022-09-03T19:58:42.689Z,2.53
2022-09-03T20:01:31.227Z,2.83
2022-09-03T20:04:19.058Z,2.40
2022-09-03T20:07:06.163Z,2.38
2022-09-03T20:09:57.113Z,3.08
2022-09-03T20:12:25.364Z,2.70
2022-09-03T20:14:52.677Z,2.35
2022-09-03T20:17:32.980Z,2.67
2022-09-03T20:20:29.717Z,2.08
2022-09-03T20:23:01.748Z,2.30
2022-09-03T20:26:05.205Z,2.58
2022-09-03T20:28:45.806Z,2.33
2022-09-03T20:31:46.413Z,2.70
2022-09-03T20:34:26.210Z,2.10
2022-09-03T20:37:16.177Z,2.30
2022-09-03T20:40:20.952Z,2.78
2022-09-03T20:43:06.340Z,2.42
2022-09-03T20:45:44.334Z,2.55
2022-09-03T20:48:25.371Z,1.90
2022-09-03T20:51:23.370Z,2.20
2022-09-03T20:54:22.201Z,2.38
2022-09-03T20:56:55.537Z,2.05
2022-09-03T20:59:35.936Z,2.63
2022-09-03T21:02:38.650Z,2.20
2022-09-03T21:05:38.739Z,2.35
2022-09-03T21:08:11.968Z,1.60
2022-09-03T21:10:41.977Z,2.20
2022-09-03T21:13:19.295Z,1.80
2022-09-03T21:15:56.533Z,1.92
2022-09-03T21:18:27.043Z,2.00
2022-09-03T21:21:02.384Z,1.70
2022-09-03T21:26:24.460Z,2.30
2022-09-03T21:29:07.882Z,1.63
2022-09-03T21:31:46.787Z,1.60
2022-09-03T21:34:45.697Z,1.63
2022-09-03T21:37:13.650Z,1.70
2022-09-03T21:39:52.715Z,1.65
2022-09-03T21:42:36.572Z,2.22
2022-09-03T21:45:30.687Z,2.05
2022-09-03T21:48:05.715Z,2.20
2022-09-03T21:50:55.624Z,2.60
2022-09-03T21:53:29.439Z,2.55
2022-09-03T21:55:59.559Z,2.92
2022-09-03T21:58:38.622Z,4.03
2022-09-03T22:01:12.526Z,3.70
2022-09-03T22:03:41.718Z,4.05
2022-09-03T22:06:14.649Z,2.85
2022-09-03T22:08:53.228Z,3.15
2022-09-03T22:11:37.452Z,2.67
2022-09-03T22:14:33.818Z,2.60
2022-09-03T22:17:11.353Z,2.67
2022-09-03T22:19:38.902Z,2.65
2022-09-03T22:22:28.038Z,2.15
2022-09-03T22:25:04.953Z,2.10
2022-09-03T22:28:00.708Z,2.05
2022-09-03T22:30:34.079Z,1.70
2022-09-03T22:33:46.537Z,1.75
2022-09-03T22:36:23.408Z,1.70
2022-09-03T22:39:11.808Z,1.70
2022-09-03T22:41:57.558Z,1.88
2022-09-03T22:44:39.990Z,1.27
2022-09-03T22:47:37.214Z,1.80
2022-09-03T22:50:18.270Z,1.42
2022-09-03T22:52:57.364Z,1.85
2022-09-03T22:55:26.059Z,1.30
2022-09-03T22:57:58.029Z,1.30
2022-09-03T23:00:26.027Z,1.40
2022-09-03T23:03:07.677Z,1.50
2022-09-03T23:05:56.596Z,1.40
2022-09-03T23:08:35.349Z,1.35
2022-09-03T23:11:10.286Z,1.38
2022-09-03T23:13:42.244Z,1.40
2022-09-03T23:16:15.448Z,1.60
2022-09-03T23:18:45.196Z,1.95
2022-09-03T23:21:53.763Z,1.35
2022-09-03T23:24:42.841Z,1.20
2022-09-03T23:27:15.254Z,1.40
2022-09-03T23:29:47.490Z,1.33
2022-09-03T23:32:15.055Z,1.50
2022-09-03T23:34:42.719Z,1.38
2022-09-03T23:37:34.472Z,1.40
2022-09-03T23:40:39.421Z,1.17
2022-09-03T23:43:45.641Z,1.52
2022-09-03T23:46:13.160Z,1.45
2022-09-03T23:49:04.419Z,1.35
2022-09-03T23:51:37.772Z,1.30
2022-09-03T23:54:13.402Z,1.63
2022-09-03T23:56:46.810Z,1.30
2022-09-03T23:59:40.694Z,1.45
